Time;durP1;ratioP1;P1;durP2;ratioP2;P2;SDS_P1;SDS_P2;PMS_P1;PMS_P2;Temp;Humidity;BMP_temperature;BMP_pressure;BME280_temperature;BME280_humidity;BME280_pressure;Samples;Min_cycle;Max_cycle;Signal;HPM_P1;HPM_P2
2022/05/12 00:00:52;;;;;;;17.83;8.60;;;12.30;99.90;;;;;;5049951;28;20191;-52
2022/05/12 00:03:18;;;;;;;15.43;7.40;;;12.30;99.90;;;;;;5051374;28;20208;-50
2022/05/12 00:05:45;;;;;;;20.57;7.17;;;12.30;99.90;;;;;;5050634;28;20273;-54
2022/05/12 00:08:11;;;;;;;13.50;7.80;;;12.30;99.90;;;;;;5051409;28;20184;-55
2022/05/12 00:10:38;;;;;;;18.27;8.13;;;12.40;99.90;;;;;;5051342;28;20588;-55
2022/05/12 00:13:04;;;;;;;16.30;7.73;;;12.40;99.90;;;;;;5051058;28;20182;-53
2022/05/12 00:15:33;;;;;;;17.77;7.47;;;12.50;99.90;;;;;;5049807;28;20193;-58
2022/05/12 00:18:04;;;;;;;14.77;7.27;;;12.50;99.90;;;;;;5050832;28;20191;-55
2022/05/12 00:20:31;;;;;;;15.70;7.03;;;12.50;99.90;;;;;;5050970;28;20308;-54
2022/05/12 00:23:15;;;;;;;13.20;6.67;;;12.50;99.90;;;;;;5050872;28;20176;-53
2022/05/12 00:25:44;;;;;;;15.17;7.03;;;12.50;99.90;;;;;;5053335;28;20621;-62
2022/05/12 00:28:11;;;;;;;19.77;7.40;;;12.50;99.90;;;;;;5055348;28;20229;-54
2022/05/12 00:30:38;;;;;;;11.23;6.67;;;12.50;99.90;;;;;;5054967;28;20193;-53
2022/05/12 00:33:05;;;;;;;16.57;7.13;;;12.50;99.90;;;;;;5055399;28;20209;-55
2022/05/12 00:35:32;;;;;;;12.57;6.40;;;12.40;99.90;;;;;;5054910;28;20200;-56
2022/05/12 00:37:58;;;;;;;15.83;7.37;;;12.40;99.90;;;;;;5053687;28;20194;-55
2022/05/12 00:40:24;;;;;;;19.93;7.33;;;12.40;99.90;;;;;;5053887;28;20195;-55
2022/05/12 00:43:08;;;;;;;13.97;6.80;;;12.40;99.90;;;;;;5055169;28;20571;-53
2022/05/12 00:45:36;;;;;;;14.70;6.40;;;12.40;99.90;;;;;;5054946;28;20248;-55
2022/05/12 00:48:04;;;;;;;14.53;6.63;;;12.40;99.90;;;;;;5054919;28;20213;-54
2022/05/12 00:50:36;;;;;;;13.97;6.00;;;12.50;99.90;;;;;;5054731;28;20201;-55
2022/05/12 00:53:06;;;;;;;13.60;6.67;;;12.50;99.90;;;;;;5054772;28;20275;-54
2022/05/12 00:55:35;;;;;;;15.87;6.07;;;12.50;99.90;;;;;;5054557;28;20178;-57
2022/05/12 00:58:05;;;;;;;13.10;6.67;;;12.50;99.90;;;;;;5054372;28;20192;-52
2022/05/12 01:00:30;;;;;;;12.97;6.13;;;12.50;99.90;;;;;;5054468;28;20185;-53
2022/05/12 01:03:00;;;;;;;12.90;7.03;;;12.50;99.90;;;;;;5054705;28;20585;-55
2022/05/12 01:05:27;;;;;;;13.97;6.63;;;12.50;99.90;;;;;;5054415;28;20190;-54
2022/05/12 01:07:55;;;;;;;12.27;5.70;;;12.50;99.90;;;;;;5054276;28;20253;-54
2022/05/12 01:10:22;;;;;;;14.33;5.80;;;12.50;99.90;;;;;;5054616;28;20630;-53
2022/05/12 01:12:50;;;;;;;12.43;6.30;;;12.50;99.90;;;;;;5054399;28;20251;-54
2022/05/12 01:15:19;;;;;;;10.20;5.63;;;12.50;99.90;;;;;;5054114;28;20189;-51
2022/05/12 01:17:46;;;;;;;11.67;6.10;;;12.50;99.90;;;;;;5053988;28;20185;-54
2022/05/12 01:20:13;;;;;;;10.83;5.93;;;12.50;99.90;;;;;;5053922;28;20230;-54
2022/05/12 01:22:58;;;;;;;13.17;6.03;;;12.50;99.90;;;;;;5054406;28;20177;-55
2022/05/12 01:25:27;;;;;;;14.80;6.53;;;12.40;99.90;;;;;;5053804;28;20233;-54
2022/05/12 01:27:53;;;;;;;16.30;6.27;;;12.30;99.90;;;;;;5054014;28;20219;-54
2022/05/12 01:30:22;;;;;;;18.57;6.63;;;12.30;99.90;;;;;;5054333;28;20196;-50
2022/05/12 01:32:48;;;;;;;10.93;5.70;;;12.30;99.90;;;;;;5053943;28;20212;-61
2022/05/12 01:35:22;;;;;;;10.93;5.80;;;12.30;99.90;;;;;;5053774;28;20194;-54
2022/05/12 01:37:48;;;;;;;11.80;5.77;;;12.30;99.90;;;;;;5053189;28;20181;-53
2022/05/12 01:40:17;;;;;;;16.00;5.07;;;12.30;99.90;;;;;;5053796;28;20193;-55
2022/05/12 01:42:42;;;;;;;22.30;6.67;;;12.40;99.90;;;;;;5053904;28;20632;-59
2022/05/12 01:45:10;;;;;;;13.37;5.77;;;12.60;99.90;;;;;;5054159;28;20189;-55
2022/05/12 01:47:37;;;;;;;14.90;4.70;;;12.80;99.90;;;;;;5053718;28;20213;-53
2022/05/12 01:50:04;;;;;;;9.07;4.87;;;12.90;99.90;;;;;;5053193;28;20194;-54
2022/05/12 01:52:30;;;;;;;11.97;4.93;;;13.00;99.90;;;;;;5053848;28;20643;-54
2022/05/12 01:54:56;;;;;;;13.03;5.00;;;13.00;99.90;;;;;;5053855;28;20190;-52
2022/05/12 01:57:22;;;;;;;16.10;5.70;;;13.00;99.90;;;;;;5054147;28;20193;-53
2022/05/12 01:59:49;;;;;;;12.60;5.10;;;13.10;99.90;;;;;;5053105;28;20190;-52
2022/05/12 02:02:15;;;;;;;11.40;5.53;;;13.10;99.90;;;;;;5053191;28;20364;-53
2022/05/12 02:04:41;;;;;;;16.50;5.80;;;13.00;99.90;;;;;;5051699;28;20189;-54
2022/05/12 02:07:08;;;;;;;15.43;5.33;;;13.00;99.90;;;;;;5053159;28;20224;-53
2022/05/12 02:09:33;;;;;;;16.30;6.07;;;13.00;99.90;;;;;;5053202;28;20186;-52
2022/05/12 02:11:59;;;;;;;12.30;5.10;;;13.10;99.90;;;;;;5053298;28;20186;-56
2022/05/12 02:14:25;;;;;;;8.70;4.93;;;13.10;99.90;;;;;;5053467;28;20199;-56
2022/05/12 02:16:51;;;;;;;14.80;5.30;;;13.10;99.90;;;;;;5052987;28;20217;-52
2022/05/12 02:19:17;;;;;;;12.70;5.80;;;13.10;99.90;;;;;;5053028;28;20236;-54
2022/05/12 02:21:43;;;;;;;19.60;5.60;;;13.10;99.90;;;;;;5052998;28;20264;-57
2022/05/12 02:24:08;;;;;;;16.37;5.97;;;13.10;99.90;;;;;;5053200;28;20257;-51
2022/05/12 02:26:35;;;;;;;13.97;4.97;;;13.10;99.90;;;;;;5052956;28;20214;-54
2022/05/12 02:29:00;;;;;;;16.40;5.40;;;13.20;99.90;;;;;;5051300;28;20244;-54
2022/05/12 02:31:26;;;;;;;18.17;5.97;;;13.10;99.90;;;;;;5052953;28;20177;-51
2022/05/12 02:33:52;;;;;;;14.83;6.00;;;13.10;99.90;;;;;;5052055;28;20259;-54
2022/05/12 02:36:19;;;;;;;24.00;6.53;;;13.10;99.90;;;;;;5052412;28;20243;-54
2022/05/12 02:38:44;;;;;;;14.77;5.47;;;13.10;99.90;;;;;;5052432;28;20181;-55
2022/05/12 02:41:10;;;;;;;22.10;6.40;;;13.10;99.90;;;;;;5052644;28;20182;-53
2022/05/12 02:43:37;;;;;;;15.27;5.57;;;13.10;99.90;;;;;;5052818;28;20192;-52
2022/05/12 02:46:06;;;;;;;17.17;5.90;;;13.10;99.90;;;;;;5052076;28;20645;-53
2022/05/12 02:48:35;;;;;;;13.87;6.23;;;13.10;99.90;;;;;;5051210;28;20262;-53
2022/05/12 02:51:01;;;;;;;21.17;7.37;;;13.00;99.90;;;;;;5050591;28;20191;-55
2022/05/12 02:53:28;;;;;;;14.93;5.90;;;13.00;99.90;;;;;;5052620;28;20185;-53
2022/05/12 02:55:54;;;;;;;14.33;6.00;;;12.90;99.90;;;;;;5034361;28;20193;-55
2022/05/12 02:58:20;;;;;;;15.47;5.73;;;12.90;99.90;;;;;;5052968;28;20194;-53
2022/05/12 03:00:48;;;;;;;17.90;6.00;;;12.80;99.90;;;;;;5052199;28;20186;-55
2022/05/12 03:03:14;;;;;;;21.53;6.33;;;12.80;99.90;;;;;;5051988;28;20252;-52
2022/05/12 03:05:40;;;;;;;15.70;5.93;;;12.80;99.90;;;;;;5051650;28;20190;-51
2022/05/12 03:08:07;;;;;;;25.03;6.43;;;12.80;99.90;;;;;;5051817;28;20225;-57
2022/05/12 03:10:33;;;;;;;15.33;5.67;;;12.80;99.90;;;;;;5052303;28;20184;-54
2022/05/12 03:12:59;;;;;;;13.40;5.60;;;12.90;99.90;;;;;;5051996;28;20185;-51
2022/05/12 03:15:25;;;;;;;25.53;7.67;;;12.90;99.90;;;;;;5050763;28;20180;-49
2022/05/12 03:17:51;;;;;;;21.57;6.37;;;13.00;99.90;;;;;;5051102;28;20636;-52
2022/05/12 03:20:20;;;;;;;23.87;6.43;;;13.10;99.90;;;;;;5051867;28;20216;-55
2022/05/12 03:22:47;;;;;;;25.53;7.50;;;13.20;99.90;;;;;;5050903;28;20548;-52
2022/05/12 03:25:14;;;;;;;21.80;6.27;;;13.20;99.90;;;;;;5051396;28;20197;-55
2022/05/12 03:27:41;;;;;;;14.23;5.43;;;13.20;99.90;;;;;;5051430;28;20229;-52
2022/05/12 03:30:10;;;;;;;15.20;5.27;;;13.20;99.90;;;;;;5049983;28;20182;-52
2022/05/12 03:32:36;;;;;;;19.23;5.77;;;13.30;99.90;;;;;;5050069;28;20534;-55
2022/05/12 03:35:04;;;;;;;29.50;8.10;;;13.40;99.90;;;;;;5051001;28;20197;-54
2022/05/12 03:37:30;;;;;;;9.07;4.57;;;13.50;99.90;;;;;;5050991;28;20292;-57
2022/05/12 03:39:55;;;;;;;10.27;5.23;;;13.60;99.90;;;;;;5051085;28;20583;-54
2022/05/12 03:42:21;;;;;;;11.63;5.07;;;13.70;99.90;;;;;;5050183;28;20649;-56
2022/05/12 03:44:47;;;;;;;17.27;4.97;;;13.80;99.90;;;;;;5051290;28;20621;-55
2022/05/12 03:47:19;;;;;;;13.43;5.30;;;13.90;99.90;;;;;;5050896;28;20607;-59
2022/05/12 03:49:50;;;;;;;24.13;6.20;;;14.00;99.90;;;;;;5050340;28;20561;-55
2022/05/12 03:52:17;;;;;;;24.57;6.60;;;14.10;99.90;;;;;;5051176;28;20173;-53
2022/05/12 03:54:44;;;;;;;17.90;6.60;;;14.20;99.90;;;;;;5050673;28;20178;-66
2022/05/12 03:57:11;;;;;;;11.70;5.37;;;14.20;99.90;;;;;;5050662;28;20200;-55
2022/05/12 03:59:40;;;;;;;18.10;5.63;;;14.30;99.90;;;;;;5049020;28;20592;-53
2022/05/12 04:02:10;;;;;;;15.80;5.30;;;14.40;99.90;;;;;;5048944;28;20201;-53
2022/05/12 04:04:36;;;;;;;16.27;4.73;;;14.50;99.90;;;;;;5050488;28;20174;-54
2022/05/12 04:07:02;;;;;;;19.67;5.70;;;14.60;99.90;;;;;;5050302;28;20211;-58
2022/05/12 04:09:29;;;;;;;18.37;5.93;;;14.70;99.90;;;;;;5051056;28;20180;-52
2022/05/12 04:11:54;;;;;;;13.87;5.27;;;14.80;99.90;;;;;;5050809;28;20657;-59
2022/05/12 04:14:20;;;;;;;13.77;5.60;;;14.90;99.90;;;;;;5049782;28;20261;-57
2022/05/12 04:16:46;;;;;;;17.50;5.93;;;14.90;99.90;;;;;;5050281;28;20182;-57
2022/05/12 04:19:13;;;;;;;24.83;7.03;;;15.00;99.90;;;;;;5049617;28;20312;-54
2022/05/12 04:21:40;;;;;;;18.10;6.13;;;15.10;99.90;;;;;;5050995;28;20198;-60
2022/05/12 04:24:08;;;;;;;32.17;8.30;;;15.20;99.90;;;;;;5050692;28;20233;-54
2022/05/12 04:26:36;;;;;;;20.97;6.67;;;15.30;99.90;;;;;;5050418;28;20660;-57
2022/05/12 04:29:02;;;;;;;16.80;5.87;;;15.40;99.90;;;;;;5049288;28;20186;-55
2022/05/12 04:31:28;;;;;;;11.83;5.23;;;15.40;99.90;;;;;;5049305;28;20255;-54
2022/05/12 04:36:39;;;;;;;16.13;5.10;;;15.70;99.90;;;;;;5050525;28;20212;-55
2022/05/12 04:39:06;;;;;;;17.00;5.63;;;15.80;99.90;;;;;;5046961;28;20712;-66
2022/05/12 04:41:32;;;;;;;10.87;4.97;;;16.00;99.90;;;;;;5036506;28;20272;-56
2022/05/12 04:43:58;;;;;;;12.03;4.80;;;16.10;99.90;;;;;;5047096;28;20223;-59
2022/05/12 04:46:25;;;;;;;15.90;4.97;;;16.30;99.90;;;;;;5048286;28;20228;-58
2022/05/12 04:48:52;;;;;;;16.33;7.00;;;16.50;99.90;;;;;;5037212;28;20249;-56
2022/05/12 04:51:18;;;;;;;21.90;6.43;;;16.70;99.90;;;;;;5036489;28;20197;-57
2022/05/12 04:53:45;;;;;;;15.90;5.53;;;16.90;99.90;;;;;;5039078;28;20274;-60
2022/05/12 04:56:11;;;;;;;9.77;4.30;;;17.10;99.90;;;;;;5049392;28;20198;-59
2022/05/12 04:58:37;;;;;;;8.77;4.50;;;17.30;99.90;;;;;;5049968;28;20198;-58
2022/05/12 05:01:02;;;;;;;10.27;4.43;;;17.40;99.90;;;;;;5028357;28;20195;-58
2022/05/12 05:03:28;;;;;;;12.60;4.97;;;17.50;99.90;;;;;;5043181;28;20267;-55
2022/05/12 05:05:54;;;;;;;16.97;5.57;;;17.70;99.90;;;;;;5040745;28;20187;-54
2022/05/12 05:08:22;;;;;;;12.20;4.37;;;17.90;99.90;;;;;;5033225;28;20195;-54
2022/05/12 05:10:48;;;;;;;13.37;4.67;;;18.10;99.20;;;;;;5048415;28;20205;-58
2022/05/12 05:13:15;;;;;;;12.57;4.30;;;18.20;98.60;;;;;;5052086;28;20727;-58
2022/05/12 05:15:40;;;;;;;12.57;4.13;;;18.40;97.50;;;;;;5053294;28;20567;-55
2022/05/12 05:18:11;;;;;;;14.87;4.33;;;18.60;96.80;;;;;;5052505;28;20182;-51
2022/05/12 05:20:37;;;;;;;10.30;5.20;;;18.70;96.50;;;;;;5052572;28;20267;-55
2022/05/12 05:23:03;;;;;;;15.30;4.27;;;18.90;96.10;;;;;;5049554;28;20202;-61
2022/05/12 05:25:31;;;;;;;15.20;4.30;;;19.00;95.40;;;;;;5052721;28;20273;-55
2022/05/12 05:27:57;;;;;;;13.63;4.60;;;19.10;95.10;;;;;;5037984;28;20621;-60
2022/05/12 05:30:24;;;;;;;19.80;5.40;;;19.20;95.10;;;;;;5052930;28;20282;-53
2022/05/12 05:32:50;;;;;;;12.40;4.17;;;19.30;95.00;;;;;;5052705;28;20244;-62
2022/05/12 05:35:17;;;;;;;21.87;5.57;;;19.40;94.90;;;;;;5052905;28;20562;-59
2022/05/12 05:37:44;;;;;;;15.48;4.43;;;19.60;94.80;;;;;;5051618;28;20190;-55
2022/05/12 05:40:13;;;;;;;20.73;4.57;;;19.70;95.00;;;;;;5058844;28;20194;-59
2022/05/12 05:42:40;;;;;;;14.88;4.13;;;19.80;95.20;;;;;;5048085;28;20205;-59
2022/05/12 05:45:12;;;;;;;9.20;3.75;;;19.80;95.10;;;;;;5050737;28;20195;-52
2022/05/12 05:47:45;;;;;;;26.75;5.47;;;19.90;94.50;;;;;;5052572;28;20310;-58
2022/05/12 05:50:13;;;;;;;11.65;3.38;;;20.00;94.30;;;;;;5052694;28;20198;-56
2022/05/12 05:55:22;;;;;;;18.30;4.53;;;20.20;92.90;;;;;;5051487;28;20189;-60
2022/05/12 05:57:48;;;;;;;12.75;3.75;;;20.40;92.10;;;;;;5033570;28;20186;-59
2022/05/12 06:00:15;;;;;;;14.60;3.80;;;20.50;92.00;;;;;;5051366;28;20235;-60
2022/05/12 06:02:41;;;;;;;12.55;4.07;;;20.60;91.30;;;;;;5051272;28;20209;-61
2022/05/12 06:05:08;;;;;;;12.30;3.60;;;20.70;90.70;;;;;;5051206;28;20183;-58
2022/05/12 06:07:38;;;;;;;7.45;3.35;;;20.60;90.80;;;;;;5051367;28;20359;-57
2022/05/12 06:10:06;;;;;;;14.18;4.30;;;20.70;90.40;;;;;;5052397;28;20174;-59
2022/05/12 06:12:33;;;;;;;10.63;3.75;;;20.80;90.30;;;;;;5052490;28;20174;-60
2022/05/12 06:14:59;;;;;;;10.00;3.80;;;20.90;89.10;;;;;;5051831;28;20256;-61
2022/05/12 06:17:26;;;;;;;6.78;3.40;;;21.00;88.40;;;;;;5051897;28;20237;-55
2022/05/12 06:19:52;;;;;;;12.00;3.75;;;21.00;87.50;;;;;;5052107;28;20268;-55
2022/05/12 06:22:19;;;;;;;10.73;3.65;;;21.10;85.50;;;;;;5052644;28;20182;-57
2022/05/12 06:24:47;;;;;;;11.68;3.58;;;21.10;86.00;;;;;;5051824;28;20234;-57
2022/05/12 06:27:14;;;;;;;10.88;3.65;;;21.20;85.50;;;;;;5050912;28;20206;-54
2022/05/12 06:29:44;;;;;;;10.57;3.35;;;21.30;85.30;;;;;;5051972;28;20217;-58
2022/05/12 06:32:10;;;;;;;10.50;3.83;;;21.40;84.00;;;;;;5050167;28;20182;-59
2022/05/12 06:34:36;;;;;;;8.13;3.40;;;21.50;82.40;;;;;;5051426;28;20239;-56
2022/05/12 06:37:04;;;;;;;22.08;5.35;;;21.50;82.10;;;;;;5051246;28;20178;-59
2022/05/12 06:39:30;;;;;;;6.97;3.08;;;21.70;82.20;;;;;;5052125;28;20248;-57
2022/05/12 06:41:56;;;;;;;14.50;4.05;;;21.90;81.00;;;;;;5052018;28;20249;-59
2022/05/12 06:44:22;;;;;;;10.65;3.88;;;21.80;80.10;;;;;;5050416;28;20185;-60
2022/05/12 06:46:48;;;;;;;10.57;3.60;;;21.90;79.80;;;;;;5051286;28;20672;-58
2022/05/12 06:49:14;;;;;;;6.47;3.65;;;22.00;79.40;;;;;;5051632;28;20182;-59
2022/05/12 06:51:40;;;;;;;14.02;4.05;;;22.20;78.60;;;;;;5052266;28;20294;-59
2022/05/12 06:54:06;;;;;;;7.78;3.00;;;22.20;78.20;;;;;;5051290;28;20269;-60
2022/05/12 06:56:32;;;;;;;14.23;3.42;;;22.20;77.20;;;;;;5052324;28;20575;-51
2022/05/12 06:58:58;;;;;;;12.75;3.30;;;22.20;76.30;;;;;;5049773;28;20182;-60
2022/05/12 07:01:24;;;;;;;11.52;3.40;;;22.30;75.30;;;;;;5051435;28;20178;-59
2022/05/12 07:03:50;;;;;;;7.88;3.50;;;22.30;74.80;;;;;;5051479;28;20235;-55
2022/05/12 07:06:16;;;;;;;18.48;4.57;;;22.50;74.10;;;;;;5050412;28;20206;-61
2022/05/12 07:08:42;;;;;;;6.57;3.28;;;22.60;73.10;;;;;;5051111;28;20193;-53
2022/05/12 07:11:09;;;;;;;9.77;4.15;;;22.60;72.50;;;;;;5049983;28;20174;-50
2022/05/12 07:13:35;;;;;;;12.25;3.58;;;22.70;72.00;;;;;;5051524;28;20190;-56
2022/05/12 07:16:03;;;;;;;8.85;3.40;;;22.80;71.80;;;;;;5051146;28;20205;-53
2022/05/12 07:18:29;;;;;;;9.13;3.60;;;22.80;70.90;;;;;;5049687;28;20274;-56
2022/05/12 07:26:35;;;;;;;12.20;3.80;;;23.10;69.80;;;;;;5051273;28;20341;-52
2022/05/12 07:29:05;;;;;;;9.02;3.38;;;23.10;69.90;;;;;;5050956;28;20170;-56
2022/05/12 07:31:32;;;;;;;10.57;3.22;;;23.20;69.40;;;;;;5050876;28;20190;-56
2022/05/12 07:33:58;;;;;;;5.32;3.13;;;23.20;68.40;;;;;;5050421;28;20183;-57
2022/05/12 07:36:34;;;;;;;6.70;2.90;;;23.30;68.00;;;;;;5048446;28;20240;-57
2022/05/12 07:39:01;;;;;;;11.40;3.45;;;23.30;68.00;;;;;;5049958;28;20631;-55
2022/05/12 07:41:27;;;;;;;10.07;2.92;;;23.30;68.60;;;;;;5049298;28;20193;-54
2022/05/12 07:43:54;;;;;;;13.40;2.83;;;23.40;67.90;;;;;;5051087;28;20715;-53
2022/05/12 07:46:27;;;;;;;7.30;2.95;;;23.50;67.60;;;;;;5048913;28;20225;-60
2022/05/12 07:48:53;;;;;;;6.40;3.28;;;23.50;65.10;;;;;;5050839;28;20636;-59
2022/05/12 07:51:20;;;;;;;8.48;3.22;;;23.50;65.30;;;;;;5050571;28;20268;-59
2022/05/12 07:53:47;;;;;;;8.52;3.17;;;23.70;65.30;;;;;;5050448;28;20265;-56
2022/05/12 07:56:15;;;;;;;9.38;2.72;;;23.80;63.90;;;;;;5050682;28;20550;-61
2022/05/12 07:58:41;;;;;;;8.40;3.38;;;23.70;62.70;;;;;;5049263;28;20626;-60
2022/05/12 08:01:07;;;;;;;7.60;3.22;;;23.70;62.10;;;;;;5050138;28;20209;-60
2022/05/12 08:03:32;;;;;;;3.95;2.58;;;23.70;62.00;;;;;;5050597;28;20202;-61
2022/05/12 08:06:02;;;;;;;12.43;3.50;;;23.70;62.20;;;;;;5050813;28;20240;-59
2022/05/12 08:08:28;;;;;;;15.63;4.10;;;23.70;62.80;;;;;;5049448;28;20190;-56
2022/05/12 08:10:54;;;;;;;12.55;3.53;;;23.80;62.10;;;;;;5050497;28;20190;-55
2022/05/12 08:13:21;;;;;;;9.73;3.60;;;23.80;62.30;;;;;;5050322;28;20190;-55
2022/05/12 08:15:49;;;;;;;11.13;3.60;;;24.00;64.10;;;;;;5050043;28;20228;-59
2022/05/12 08:18:23;;;;;;;8.60;3.63;;;24.10;63.30;;;;;;5050082;28;20265;-59
2022/05/12 08:20:50;;;;;;;15.75;3.08;;;24.20;63.30;;;;;;5050678;28;20644;-58
2022/05/12 08:23:17;;;;;;;7.80;3.67;;;24.30;63.50;;;;;;5050365;28;20229;-58
2022/05/12 08:25:44;;;;;;;14.32;3.55;;;24.50;61.40;;;;;;5050105;28;20580;-55
2022/05/12 08:28:13;;;;;;;5.88;3.53;;;24.40;60.20;;;;;;5049433;28;20558;-60
2022/05/12 08:30:39;;;;;;;7.35;3.22;;;24.40;59.70;;;;;;5049703;28;20200;-58
2022/05/12 08:33:05;;;;;;;9.73;4.13;;;24.50;61.00;;;;;;5049938;28;20178;-59
2022/05/12 08:35:31;;;;;;;5.95;3.13;;;24.50;58.80;;;;;;5050190;28;20602;-55
2022/05/12 08:37:56;;;;;;;6.90;3.63;;;24.60;58.90;;;;;;5049773;28;20192;-65
2022/05/12 08:40:33;;;;;;;6.47;3.00;;;24.50;59.60;;;;;;5049947;28;20182;-53
2022/05/12 08:43:21;;;;;;;9.93;3.55;;;24.60;59.80;;;;;;5049224;28;20585;-57
2022/05/12 08:45:47;;;;;;;10.23;3.08;;;24.70;60.40;;;;;;5049462;28;20189;-58
2022/05/12 08:48:15;;;;;;;9.38;3.70;;;24.80;59.50;;;;;;5051177;28;20245;-59
2022/05/12 08:50:41;;;;;;;8.20;3.47;;;24.90;58.90;;;;;;5051785;28;20198;-61
2022/05/12 08:53:16;;;;;;;10.07;3.03;;;25.00;58.60;;;;;;5043857;28;20573;-60
2022/05/12 08:55:50;;;;;;;9.25;3.03;;;25.00;57.40;;;;;;5033595;28;20551;-58
2022/05/12 08:58:21;;;;;;;8.05;2.70;;;25.00;55.90;;;;;;5033082;28;20179;-58
2022/05/12 09:01:01;;;;;;;12.60;3.55;;;24.90;54.30;;;;;;5032994;28;20213;-53
2022/05/12 09:03:55;;;;;;;9.27;3.42;;;24.90;54.20;;;;;;5034108;28;20297;-57
2022/05/12 09:06:34;;;;;;;11.18;3.50;;;25.00;53.70;;;;;;5048715;28;20221;-59
2022/05/12 09:09:10;;;;;;;14.63;3.97;;;25.10;53.10;;;;;;5053507;28;20624;-57
2022/05/12 09:11:47;;;;;;;10.98;2.92;;;25.30;52.20;;;;;;5053760;28;20169;-54
2022/05/12 09:14:19;;;;;;;13.32;3.28;;;25.30;52.20;;;;;;5053045;28;20219;-55
2022/05/12 09:16:50;;;;;;;6.18;2.83;;;25.40;51.70;;;;;;5052746;28;20189;-57
2022/05/12 09:19:16;;;;;;;16.63;3.72;;;25.50;51.50;;;;;;5053284;28;20175;-60
2022/05/12 09:21:42;;;;;;;5.60;2.80;;;25.50;51.50;;;;;;5051838;28;20209;-59
2022/05/12 09:24:08;;;;;;;6.65;2.95;;;25.50;51.20;;;;;;5052461;28;20675;-55
2022/05/12 09:27:00;;;;;;;8.95;3.53;;;25.40;51.30;;;;;;5052438;28;20273;-59
2022/05/12 09:29:29;;;;;;;11.82;3.28;;;25.50;52.20;;;;;;5013654;28;20194;-62
2022/05/12 09:32:15;;;;;;;6.38;3.00;;;25.50;52.20;;;;;;5052604;28;20182;-53
2022/05/12 09:34:46;;;;;;;5.28;2.58;;;25.50;50.80;;;;;;5052896;28;20178;-52
2022/05/12 09:37:25;;;;;;;7.47;2.60;;;25.50;50.40;;;;;;5050944;28;20186;-58
2022/05/12 09:39:53;;;;;;;10.30;2.97;;;25.50;51.10;;;;;;5050839;28;20186;-57
2022/05/12 09:42:28;;;;;;;16.70;4.05;;;25.70;51.40;;;;;;5050714;28;20181;-54
2022/05/12 09:45:28;;;;;;;6.57;2.90;;;26.00;51.60;;;;;;5051053;28;20204;-57
2022/05/12 09:48:12;;;;;;;11.63;3.20;;;25.90;51.50;;;;;;5048748;28;20218;-56
2022/05/12 09:50:38;;;;;;;10.73;2.95;;;26.00;51.30;;;;;;5052428;28;20182;-50
2022/05/12 09:53:08;;;;;;;7.75;2.85;;;26.10;51.60;;;;;;5051736;28;20220;-55
2022/05/12 09:55:37;;;;;;;8.85;3.20;;;26.10;51.20;;;;;;5052403;28;20236;-57
2022/05/12 09:58:29;;;;;;;7.82;2.92;;;26.30;51.50;;;;;;5050579;28;20257;-54
2022/05/12 10:01:11;;;;;;;11.88;2.85;;;26.20;51.00;;;;;;5044713;28;20656;-58
2022/05/12 10:09:28;;;;;;;10.45;3.17;;;26.00;52.40;;;;;;5052373;28;20231;-58
2022/05/12 10:12:06;;;;;;;9.15;3.20;;;26.10;52.40;;;;;;5051926;28;20166;-61
2022/05/12 10:14:39;;;;;;;9.75;3.20;;;26.40;53.00;;;;;;5051767;28;20189;-60
2022/05/12 10:17:18;;;;;;;8.13;3.10;;;26.40;52.00;;;;;;5052181;28;20285;-56
2022/05/12 10:19:45;;;;;;;8.15;3.40;;;26.60;52.10;;;;;;5051938;28;20163;-59
2022/05/12 10:22:16;;;;;;;5.95;2.72;;;26.70;52.20;;;;;;5051858;28;20194;-59
2022/05/12 10:25:10;;;;;;;8.25;2.88;;;26.80;52.10;;;;;;5050003;28;20639;-55
2022/05/12 10:27:53;;;;;;;7.72;2.97;;;27.00;51.80;;;;;;5051206;28;20297;-62
2022/05/12 10:30:42;;;;;;;11.95;3.10;;;26.90;51.60;;;;;;5051214;28;20192;-61
2022/05/12 10:33:30;;;;;;;10.98;3.30;;;26.70;52.00;;;;;;5050920;28;20186;-60
2022/05/12 10:36:18;;;;;;;7.72;2.70;;;27.00;52.60;;;;;;5051603;28;20186;-63
2022/05/12 10:38:43;;;;;;;9.10;3.67;;;27.20;51.90;;;;;;5051584;28;20181;-62
2022/05/12 10:41:22;;;;;;;18.60;4.05;;;27.10;51.80;;;;;;5051374;28;20556;-62
2022/05/12 10:43:56;;;;;;;15.23;5.20;;;27.30;51.90;;;;;;5051751;28;20166;-63
2022/05/12 10:46:33;;;;;;;14.98;3.60;;;27.30;52.30;;;;;;5051536;28;20165;-60
2022/05/12 10:49:31;;;;;;;12.38;3.97;;;27.40;53.00;;;;;;5050967;28;20228;-63
2022/05/12 10:52:17;;;;;;;8.93;4.30;;;27.60;53.00;;;;;;5021577;28;20221;-65
2022/05/12 10:54:55;;;;;;;7.75;3.22;;;27.70;52.20;;;;;;5031471;28;20585;-62
2022/05/12 10:57:39;;;;;;;18.13;4.35;;;27.40;52.60;;;;;;5031487;28;20189;-60
2022/05/12 11:00:29;;;;;;;11.63;3.63;;;27.40;52.10;;;;;;5031259;28;20175;-61
2022/05/12 11:03:00;;;;;;;12.90;4.30;;;27.50;52.10;;;;;;5031834;28;20187;-61
2022/05/12 11:05:37;;;;;;;6.32;3.03;;;27.90;51.70;;;;;;5039378;28;20209;-59
2022/05/12 11:08:22;;;;;;;12.65;3.38;;;28.10;51.50;;;;;;5050579;28;20562;-60
2022/05/12 11:10:52;;;;;;;10.52;3.33;;;28.40;51.60;;;;;;5050222;28;20174;-61
2022/05/12 11:13:32;;;;;;;10.30;3.45;;;28.70;50.60;;;;;;5048517;28;20254;-58
2022/05/12 11:16:03;;;;;;;9.57;3.42;;;28.40;50.10;;;;;;5050611;28;20237;-56
2022/05/12 11:18:58;;;;;;;7.68;3.05;;;28.60;49.90;;;;;;5051291;28;20179;-56
2022/05/12 11:21:28;;;;;;;11.35;2.85;;;28.80;49.90;;;;;;5051515;28;20182;-57
2022/05/12 11:24:03;;;;;;;8.38;3.05;;;29.00;49.70;;;;;;5050854;28;20548;-57
2022/05/12 11:26:38;;;;;;;17.75;4.03;;;30.50;47.90;;;;;;5051167;28;20224;-59
2022/05/12 11:29:44;;;;;;;12.13;3.92;;;32.60;46.50;;;;;;5050611;28;20259;-57
2022/05/12 11:32:38;;;;;;;6.38;3.00;;;34.00;42.60;;;;;;5051502;28;20174;-58
2022/05/12 11:35:13;;;;;;;10.05;3.75;;;34.40;41.50;;;;;;5050868;28;20182;-58
2022/05/12 11:37:38;;;;;;;15.95;4.38;;;35.00;41.00;;;;;;5051022;28;20195;-60
2022/05/12 11:40:13;;;;;;;8.80;3.05;;;35.40;39.90;;;;;;5050943;28;20185;-57
2022/05/12 11:45:51;;;;;;;13.65;3.55;;;36.00;39.10;;;;;;5050808;28;20177;-62
2022/05/12 11:48:49;;;;;;;8.38;2.58;;;36.80;38.20;;;;;;5050585;28;20216;-62
2022/05/12 11:51:42;;;;;;;16.23;4.07;;;35.70;37.50;;;;;;5050821;28;20182;-62
2022/05/12 11:54:24;;;;;;;9.73;3.42;;;36.00;37.60;;;;;;5050387;28;20277;-63
2022/05/12 11:56:58;;;;;;;14.00;3.33;;;36.40;37.40;;;;;;5050712;28;20174;-61
2022/05/12 11:59:28;;;;;;;11.18;2.95;;;36.10;36.40;;;;;;5049633;28;20175;-65
2022/05/12 12:01:59;;;;;;;7.32;3.30;;;36.50;37.10;;;;;;5050686;28;20231;-64
2022/05/12 12:04:36;;;;;;;19.65;3.38;;;36.30;36.40;;;;;;5050317;28;20607;-65
2022/05/12 12:07:04;;;;;;;10.05;3.92;;;36.20;36.50;;;;;;5049864;28;20304;-65
2022/05/12 12:09:35;;;;;;;8.20;3.00;;;36.50;36.00;;;;;;5050753;28;20236;-60
2022/05/12 12:12:03;;;;;;;6.13;3.55;;;37.10;35.50;;;;;;5050896;28;20181;-60
2022/05/12 12:14:50;;;;;;;15.85;3.35;;;37.90;35.10;;;;;;5048932;28;20253;-61
2022/05/12 12:17:24;;;;;;;16.95;3.22;;;37.30;34.30;;;;;;5050547;28;20231;-60
2022/05/12 12:19:56;;;;;;;8.00;3.20;;;35.90;36.10;;;;;;5050684;28;20257;-60
2022/05/12 12:22:36;;;;;;;11.40;3.30;;;36.60;35.40;;;;;;5041263;28;20260;-59
2022/05/12 12:25:08;;;;;;;7.50;2.80;;;37.70;34.20;;;;;;5054148;28;20684;-57
2022/05/12 12:27:52;;;;;;;11.82;2.90;;;37.40;33.50;;;;;;5055343;28;20633;-55
2022/05/12 12:30:21;;;;;;;4.03;2.90;;;37.30;34.00;;;;;;5052571;28;20189;-60
2022/05/12 12:33:16;;;;;;;11.27;3.30;;;38.50;33.30;;;;;;5054712;28;20177;-59
2022/05/12 12:35:54;;;;;;;7.78;2.65;;;38.40;32.50;;;;;;5053639;28;20209;-58
2022/05/12 12:38:46;;;;;;;18.20;4.75;;;38.50;32.50;;;;;;5051415;28;20284;-58
2022/05/12 12:41:29;;;;;;;9.40;3.75;;;38.60;32.10;;;;;;5053399;28;20178;-61
2022/05/12 12:44:18;;;;;;;9.65;3.03;;;38.80;32.30;;;;;;5052167;28;20177;-61
2022/05/12 12:47:09;;;;;;;8.40;3.00;;;38.30;32.50;;;;;;5052949;28;20224;-60
2022/05/12 12:50:04;;;;;;;13.88;4.15;;;38.80;31.90;;;;;;5036554;28;20182;-61
2022/05/12 12:52:30;;;;;;;6.63;3.03;;;37.50;33.00;;;;;;5034533;28;20166;-59
2022/05/12 12:57:52;;;;;;;6.47;3.47;;;37.90;32.40;;;;;;5034304;28;20189;-59
2022/05/12 13:00:35;;;;;;;7.82;3.00;;;38.20;32.90;;;;;;5033619;28;20258;-60
2022/05/12 13:03:06;;;;;;;4.93;2.88;;;37.40;33.00;;;;;;5033547;28;20281;-60
2022/05/12 13:05:34;;;;;;;10.95;2.92;;;37.00;33.00;;;;;;5041561;28;20663;-60
2022/05/12 13:08:04;;;;;;;5.75;3.47;;;37.00;33.70;;;;;;5051791;28;20216;-59
2022/05/12 13:10:41;;;;;;;9.18;3.60;;;37.10;33.40;;;;;;5050649;28;20170;-61
2022/05/12 13:13:07;;;;;;;10.40;3.67;;;37.30;33.10;;;;;;5051768;28;20173;-60
2022/05/12 13:15:39;;;;;;;7.47;2.90;;;38.60;32.50;;;;;;5051542;28;20196;-60
2022/05/12 13:18:08;;;;;;;7.03;2.97;;;38.40;31.50;;;;;;5052087;28;20210;-62
2022/05/12 13:20:41;;;;;;;10.02;3.00;;;37.90;32.10;;;;;;5052636;28;20632;-61